createdAt,value
2017-12-02T00:00:42.418Z,0.00
2017-12-02T00:01:42.423Z,0.00
2017-12-02T00:02:42.434Z,0.00
2017-12-02T00:03:42.453Z,0.00
2017-12-02T00:04:42.464Z,0.00
2017-12-02T00:05:42.468Z,0.00
2017-12-02T00:06:42.492Z,0.00
2017-12-02T00:07:42.517Z,0.00
2017-12-02T00:08:42.510Z,0.00
2017-12-02T00:09:42.525Z,0.00
2017-12-02T00:10:42.543Z,0.00
2017-12-02T00:11:42.549Z,0.00
2017-12-02T00:12:42.573Z,0.00
2017-12-02T00:13:42.575Z,0.00
2017-12-02T00:14:42.597Z,0.00
2017-12-02T00:15:42.598Z,0.00
2017-12-02T00:16:42.607Z,0.00
2017-12-02T00:17:42.628Z,0.00
2017-12-02T00:18:42.634Z,0.00
2017-12-02T00:19:42.653Z,0.00
2017-12-02T00:20:42.906Z,0.00
2017-12-02T00:21:42.677Z,0.00
2017-12-02T00:22:42.684Z,0.00
2017-12-02T00:23:42.696Z,0.00
2017-12-02T00:24:42.714Z,0.00
2017-12-02T00:25:42.730Z,0.00
2017-12-02T00:26:42.735Z,0.00
2017-12-02T00:27:42.759Z,0.00
2017-12-02T00:28:42.759Z,0.00
2017-12-02T00:29:42.773Z,0.00
2017-12-02T00:30:43.093Z,0.00
2017-12-02T00:31:42.804Z,0.00
2017-12-02T00:32:42.811Z,0.00
2017-12-02T00:33:42.819Z,0.00
2017-12-02T00:34:42.831Z,0.00
2017-12-02T00:35:42.850Z,0.00
2017-12-02T00:36:42.861Z,0.00
2017-12-02T00:37:42.863Z,0.00
2017-12-02T00:38:42.896Z,0.00
2017-12-02T00:39:42.893Z,0.00
2017-12-02T00:40:42.912Z,0.00
2017-12-02T00:41:42.922Z,0.00
2017-12-02T00:42:42.933Z,0.00
2017-12-02T00:43:42.945Z,0.00
2017-12-02T00:44:42.951Z,0.00
2017-12-02T00:45:42.972Z,0.00
2017-12-02T00:46:42.992Z,0.00
2017-12-02T00:47:42.997Z,0.00
2017-12-02T00:48:43.011Z,0.00
2017-12-02T00:49:43.043Z,0.00
2017-12-02T00:50:43.030Z,0.00
2017-12-02T00:51:43.048Z,0.00
2017-12-02T00:52:43.070Z,0.00
2017-12-02T00:53:43.074Z,0.00
2017-12-02T00:54:43.082Z,0.00
2017-12-02T00:55:43.105Z,0.00
2017-12-02T00:56:43.118Z,0.00
2017-12-02T00:57:43.133Z,0.00
2017-12-02T00:58:43.126Z,0.00
2017-12-02T00:59:43.151Z,0.00
2017-12-02T01:00:43.168Z,0.00
2017-12-02T01:01:43.166Z,0.00
2017-12-02T01:02:43.182Z,0.00
2017-12-02T01:03:43.202Z,0.00
2017-12-02T01:04:43.208Z,0.00
2017-12-02T01:05:43.236Z,0.00
2017-12-02T01:06:43.240Z,0.00
2017-12-02T01:07:43.243Z,0.00
2017-12-02T01:08:43.262Z,0.00
2017-12-02T01:09:43.278Z,0.00
2017-12-02T01:10:43.282Z,0.00
2017-12-02T01:11:43.296Z,0.00
2017-12-02T01:12:43.300Z,0.00
2017-12-02T01:13:43.321Z,0.00
2017-12-02T01:14:43.341Z,0.00
2017-12-02T01:15:43.343Z,0.00
2017-12-02T01:16:43.364Z,0.00
2017-12-02T01:17:43.380Z,0.00
2017-12-02T01:18:43.379Z,0.00
2017-12-02T01:19:43.393Z,0.00
2017-12-02T01:20:43.422Z,0.00
2017-12-02T01:21:43.418Z,0.00
2017-12-02T01:22:43.437Z,0.00
2017-12-02T01:23:43.448Z,0.00
2017-12-02T01:24:43.461Z,0.00
2017-12-02T01:25:43.476Z,0.00
2017-12-02T01:26:43.486Z,0.00
2017-12-02T01:27:43.499Z,0.00
2017-12-02T01:28:43.504Z,0.00
2017-12-02T01:29:43.519Z,0.00
2017-12-02T01:30:43.545Z,0.00
2017-12-02T01:31:43.543Z,0.00
2017-12-02T01:32:43.563Z,0.00
2017-12-02T01:33:43.577Z,0.00
2017-12-02T01:34:43.588Z,0.00
2017-12-02T01:35:43.650Z,0.00
2017-12-02T01:36:43.608Z,0.00
2017-12-02T01:37:43.635Z,0.00
2017-12-02T01:38:43.637Z,0.00
2017-12-02T01:39:43.639Z,0.00
2017-12-02T01:40:43.916Z,0.00
2017-12-02T01:41:43.680Z,0.00
2017-12-02T01:42:43.679Z,0.00
2017-12-02T01:43:43.712Z,0.00
2017-12-02T01:44:43.715Z,0.00
2017-12-02T01:45:43.726Z,0.00
2017-12-02T01:46:43.746Z,0.00
2017-12-02T01:47:43.749Z,0.00
2017-12-02T01:48:43.761Z,0.00
2017-12-02T01:49:43.772Z,0.00
2017-12-02T01:50:43.787Z,0.00
2017-12-02T01:51:43.807Z,0.00
2017-12-02T01:52:43.812Z,0.00
2017-12-02T01:53:43.813Z,0.00
2017-12-02T01:54:43.839Z,0.00
2017-12-02T01:55:43.850Z,0.00
2017-12-02T01:56:43.858Z,0.00
2017-12-02T01:57:43.876Z,0.00
2017-12-02T01:58:43.883Z,0.00
2017-12-02T01:59:43.896Z,0.00
2017-12-02T02:00:44.156Z,0.00
2017-12-02T02:01:43.930Z,0.00
2017-12-02T02:02:43.936Z,0.00
2017-12-02T02:03:43.947Z,0.00
2017-12-02T02:04:43.955Z,0.00
2017-12-02T02:05:43.976Z,0.00
2017-12-02T02:06:43.986Z,0.00
2017-12-02T02:07:43.999Z,0.00
2017-12-02T02:08:44.011Z,0.00
2017-12-02T02:09:44.026Z,0.00
2017-12-02T02:10:44.331Z,0.00
2017-12-02T02:11:44.050Z,0.00
2017-12-02T02:12:44.063Z,0.00
2017-12-02T02:13:44.077Z,0.00
2017-12-02T02:14:44.083Z,0.00
2017-12-02T02:15:44.109Z,0.00
2017-12-02T02:16:44.112Z,0.00
2017-12-02T02:17:44.114Z,0.00
2017-12-02T02:18:44.141Z,0.00
2017-12-02T02:19:44.158Z,0.00
2017-12-02T02:20:44.165Z,0.00
2017-12-02T02:21:44.168Z,0.00
2017-12-02T02:22:44.203Z,0.00
2017-12-02T02:23:44.197Z,0.00
2017-12-02T02:24:44.203Z,0.00
2017-12-02T02:25:44.223Z,0.00
2017-12-02T02:26:44.237Z,0.00
2017-12-02T02:27:44.242Z,0.00
2017-12-02T02:28:44.262Z,0.00
2017-12-02T02:29:44.283Z,0.00
2017-12-02T02:30:44.288Z,0.00
2017-12-02T02:31:44.293Z,0.00
2017-12-02T02:32:44.312Z,0.00
2017-12-02T02:33:44.327Z,0.00
2017-12-02T02:34:44.339Z,0.00
2017-12-02T02:35:44.358Z,0.00
2017-12-02T02:36:44.364Z,0.00
2017-12-02T02:37:44.374Z,0.00
2017-12-02T02:38:44.379Z,0.00
2017-12-02T02:39:44.409Z,0.00
2017-12-02T02:40:44.408Z,0.00
2017-12-02T02:41:44.415Z,0.00
2017-12-02T02:42:44.449Z,0.00
2017-12-02T02:43:44.452Z,0.00
2017-12-02T02:44:44.460Z,0.00
2017-12-02T02:45:44.480Z,0.00
2017-12-02T02:46:44.491Z,0.00
2017-12-02T02:47:44.499Z,0.00
2017-12-02T02:48:44.510Z,0.00
2017-12-02T02:49:44.530Z,0.00
2017-12-02T02:50:44.536Z,0.00
2017-12-02T02:51:44.542Z,0.00
2017-12-02T02:52:44.557Z,0.00
2017-12-02T02:53:44.577Z,0.00
2017-12-02T02:54:44.583Z,0.00
2017-12-02T02:55:44.601Z,0.00
2017-12-02T02:56:44.618Z,0.00
2017-12-02T02:57:44.624Z,0.00
2017-12-02T02:58:44.639Z,0.00
2017-12-02T02:59:44.658Z,0.00
2017-12-02T03:00:44.664Z,0.00
2017-12-02T03:01:44.673Z,0.00
2017-12-02T03:02:44.683Z,0.00
2017-12-02T03:03:44.703Z,0.00
2017-12-02T03:04:44.715Z,0.00
2017-12-02T03:05:44.722Z,0.00
2017-12-02T03:06:44.743Z,0.00
2017-12-02T03:07:44.746Z,0.00
2017-12-02T03:08:44.766Z,0.00
2017-12-02T03:09:44.771Z,0.00
2017-12-02T03:10:44.792Z,0.00
2017-12-02T03:11:44.805Z,0.00
2017-12-02T03:12:44.803Z,0.00
2017-12-02T03:13:44.826Z,0.00
2017-12-02T03:14:44.844Z,0.00
2017-12-02T03:15:45.103Z,0.00
2017-12-02T03:16:44.853Z,0.00
2017-12-02T03:17:44.880Z,0.00
2017-12-02T03:18:44.892Z,0.00
2017-12-02T03:19:44.909Z,0.00
2017-12-02T03:20:44.917Z,0.00
2017-12-02T03:21:44.932Z,0.00
2017-12-02T03:22:44.931Z,0.00
2017-12-02T03:23:44.963Z,0.00
2017-12-02T03:24:44.960Z,0.00
2017-12-02T03:25:45.276Z,0.00
2017-12-02T03:26:44.984Z,0.00
2017-12-02T03:27:45.007Z,0.00
2017-12-02T03:28:45.029Z,0.00
2017-12-02T03:29:45.021Z,0.00
2017-12-02T03:30:45.050Z,0.00
2017-12-02T03:31:45.058Z,0.00
2017-12-02T03:32:45.058Z,0.00
2017-12-02T03:33:45.089Z,0.00
2017-12-02T03:34:45.098Z,0.00
2017-12-02T03:35:45.095Z,0.00
2017-12-02T03:36:45.109Z,0.00
2017-12-02T03:37:45.132Z,0.00
2017-12-02T03:38:45.136Z,0.00
2017-12-02T03:39:45.150Z,0.00
2017-12-02T03:40:45.173Z,0.00
2017-12-02T03:41:45.181Z,0.00
2017-12-02T03:42:45.193Z,0.00
2017-12-02T03:43:45.199Z,0.00
2017-12-02T03:44:45.220Z,0.00
2017-12-02T03:45:45.527Z,0.00
2017-12-02T03:46:45.236Z,0.00
2017-12-02T03:47:45.257Z,0.00
2017-12-02T03:48:45.268Z,0.00
2017-12-02T03:49:45.270Z,0.00
2017-12-02T03:50:45.291Z,0.00
2017-12-02T03:51:45.310Z,0.00
2017-12-02T03:52:45.319Z,0.00
2017-12-02T03:53:45.322Z,0.00
2017-12-02T03:54:45.347Z,0.00
2017-12-02T03:55:45.352Z,0.00
2017-12-02T03:56:45.365Z,0.00
2017-12-02T03:57:45.366Z,0.00
2017-12-02T03:58:45.398Z,0.00
2017-12-02T03:59:45.404Z,0.00
2017-12-02T04:00:45.717Z,0.00
2017-12-02T04:01:45.432Z,0.00
2017-12-02T04:02:45.437Z,0.00
2017-12-02T04:03:45.449Z,0.00
2017-12-02T04:04:45.461Z,0.00
2017-12-02T04:05:45.476Z,0.00
2017-12-02T04:06:45.494Z,0.00
2017-12-02T04:07:45.500Z,0.00
2017-12-02T04:08:45.518Z,0.00
2017-12-02T04:09:45.534Z,0.00
2017-12-02T04:10:45.532Z,0.00
2017-12-02T04:11:45.557Z,0.00
2017-12-02T04:12:45.570Z,0.00
2017-12-02T04:13:45.573Z,0.00
2017-12-02T04:14:45.594Z,0.00
2017-12-02T04:15:45.602Z,0.00
2017-12-02T04:16:45.621Z,0.00
2017-12-02T04:17:45.624Z,0.00
2017-12-02T04:18:45.647Z,0.00
2017-12-02T04:19:45.660Z,0.00
2017-12-02T04:20:45.909Z,0.00
2017-12-02T04:21:45.687Z,0.00
2017-12-02T04:22:45.697Z,0.00
2017-12-02T04:23:45.705Z,0.00
2017-12-02T04:24:45.719Z,0.00
2017-12-02T04:25:46.039Z,0.00
2017-12-02T04:26:45.736Z,0.00
2017-12-02T04:27:45.761Z,0.00
2017-12-02T04:28:45.773Z,0.00
2017-12-02T04:29:45.777Z,0.00
2017-12-02T04:30:45.791Z,0.00
2017-12-02T04:31:45.807Z,0.00
2017-12-02T04:32:45.828Z,0.00
2017-12-02T04:33:45.829Z,0.00
2017-12-02T04:34:45.845Z,0.00
2017-12-02T04:35:45.861Z,0.00
2017-12-02T04:36:45.870Z,0.00
2017-12-02T04:37:45.880Z,0.00
2017-12-02T04:38:45.898Z,0.00
2017-12-02T04:39:45.903Z,0.00
2017-12-02T04:40:45.916Z,0.00
2017-12-02T04:41:45.936Z,0.00
2017-12-02T04:42:45.941Z,0.00
2017-12-02T04:43:45.962Z,0.00
2017-12-02T04:44:45.989Z,0.00
2017-12-02T04:45:45.981Z,0.00
2017-12-02T04:46:46.002Z,0.00
2017-12-02T04:47:46.011Z,0.00
2017-12-02T04:48:46.025Z,0.00
2017-12-02T04:49:46.041Z,0.00
2017-12-02T04:50:46.056Z,0.00
2017-12-02T04:51:46.070Z,0.00
2017-12-02T04:52:46.074Z,0.00
2017-12-02T04:53:46.084Z,0.00
2017-12-02T04:54:46.102Z,0.00
2017-12-02T04:55:46.413Z,0.00
2017-12-02T04:56:46.120Z,0.00
2017-12-02T04:57:46.149Z,0.00
2017-12-02T04:58:46.152Z,0.00
2017-12-02T04:59:46.166Z,0.00
2017-12-02T05:00:46.177Z,0.00
2017-12-02T05:01:46.192Z,0.00
2017-12-02T05:02:46.199Z,0.00
2017-12-02T05:03:46.215Z,0.00
2017-12-02T05:04:46.229Z,0.00
2017-12-02T05:05:46.537Z,0.00
2017-12-02T05:06:46.250Z,0.00
2017-12-02T05:07:46.268Z,0.00
2017-12-02T05:08:46.273Z,0.00
2017-12-02T05:09:46.307Z,0.00
2017-12-02T05:10:46.314Z,0.00
2017-12-02T05:11:46.319Z,0.00
2017-12-02T05:12:46.332Z,0.00
2017-12-02T05:13:46.353Z,0.00
2017-12-02T05:14:46.357Z,0.00
2017-12-02T05:15:46.364Z,0.00
2017-12-02T05:16:46.387Z,0.00
2017-12-02T05:17:46.396Z,0.00
2017-12-02T05:18:46.403Z,0.00
2017-12-02T05:19:46.426Z,0.00
2017-12-02T05:20:46.440Z,0.00
2017-12-02T05:21:46.441Z,0.00
2017-12-02T05:22:46.448Z,0.00
2017-12-02T05:23:46.472Z,0.00
2017-12-02T05:24:46.483Z,0.00
2017-12-02T05:25:46.493Z,0.00
2017-12-02T05:26:46.520Z,0.00
2017-12-02T05:27:46.522Z,0.00
2017-12-02T05:28:46.536Z,0.00
2017-12-02T05:29:46.556Z,0.00
2017-12-02T05:30:46.562Z,0.00
2017-12-02T05:31:46.572Z,0.00
2017-12-02T05:32:46.586Z,0.00
2017-12-02T05:33:46.597Z,0.00
2017-12-02T05:34:46.615Z,0.00
2017-12-02T05:35:46.621Z,0.00
2017-12-02T05:36:46.645Z,0.00
2017-12-02T05:37:46.653Z,0.00
2017-12-02T05:38:46.668Z,0.00
2017-12-02T05:39:46.677Z,0.00
2017-12-02T05:40:46.688Z,0.00
2017-12-02T05:41:46.696Z,0.00
2017-12-02T05:42:46.723Z,0.00
2017-12-02T05:43:46.728Z,0.00
2017-12-02T05:44:46.733Z,0.00
2017-12-02T05:45:46.762Z,0.00
2017-12-02T05:46:46.761Z,0.00
2017-12-02T05:47:46.774Z,0.00
2017-12-02T05:48:46.785Z,0.00
2017-12-02T05:49:46.806Z,0.00
2017-12-02T05:50:46.815Z,0.00
2017-12-02T05:51:46.820Z,0.00
2017-12-02T05:52:46.844Z,0.00
2017-12-02T05:53:46.852Z,0.00
2017-12-02T05:54:46.862Z,0.00
2017-12-02T05:55:46.887Z,0.00
2017-12-02T05:56:46.894Z,0.00
2017-12-02T05:57:46.895Z,0.00
2017-12-02T05:58:46.910Z,0.00
2017-12-02T05:59:46.933Z,0.00
2017-12-02T06:00:46.939Z,0.00
2017-12-02T06:01:46.947Z,0.00
2017-12-02T06:02:46.965Z,0.00
2017-12-02T06:03:46.985Z,0.00
2017-12-02T06:04:46.982Z,0.00
2017-12-02T06:05:47.300Z,0.00
2017-12-02T06:06:47.024Z,0.00
2017-12-02T06:07:47.022Z,0.00
2017-12-02T06:08:47.035Z,0.00
2017-12-02T06:09:47.056Z,0.00
2017-12-02T06:10:47.062Z,0.00
2017-12-02T06:11:47.074Z,0.00
2017-12-02T06:12:47.086Z,0.00
2017-12-02T06:13:47.113Z,0.00
2017-12-02T06:14:47.119Z,0.00
2017-12-02T06:15:47.124Z,0.00
2017-12-02T06:16:47.148Z,4.00
2017-12-02T06:17:47.152Z,4.00
2017-12-02T06:18:47.177Z,0.00
2017-12-02T06:19:47.176Z,0.00
2017-12-02T06:20:47.195Z,4.00
2017-12-02T06:21:47.202Z,4.00
2017-12-02T06:22:47.210Z,0.00
2017-12-02T06:23:47.216Z,4.00
2017-12-02T06:24:47.247Z,4.00
2017-12-02T06:25:47.255Z,8.00
2017-12-02T06:26:47.254Z,8.00
2017-12-02T06:27:47.286Z,8.00
2017-12-02T06:28:47.289Z,12.00
2017-12-02T06:29:47.299Z,12.00
2017-12-02T06:30:47.312Z,16.00
2017-12-02T06:31:47.323Z,16.00
2017-12-02T06:32:47.341Z,16.00
2017-12-02T06:33:47.354Z,20.00
2017-12-02T06:34:47.357Z,24.00
2017-12-02T06:35:47.674Z,28.00
2017-12-02T06:36:47.383Z,32.00
2017-12-02T06:37:47.389Z,36.00
2017-12-02T06:38:47.408Z,40.00
2017-12-02T06:39:47.420Z,44.00
2017-12-02T06:40:47.438Z,48.00
2017-12-02T06:41:47.447Z,52.00
2017-12-02T06:42:47.446Z,60.00
2017-12-02T06:43:47.478Z,64.00
2017-12-02T06:44:47.482Z,72.00
2017-12-02T06:45:47.485Z,80.00
2017-12-02T06:46:47.516Z,88.00
2017-12-02T06:47:47.522Z,100.00
2017-12-02T06:48:47.528Z,116.00
2017-12-02T06:49:47.538Z,128.00
2017-12-02T06:50:47.561Z,140.00
2017-12-02T06:51:47.574Z,152.00
2017-12-02T06:52:47.573Z,168.00
2017-12-02T06:53:47.587Z,184.00
2017-12-02T06:54:47.606Z,204.00
2017-12-02T06:55:47.611Z,224.00
2017-12-02T06:56:47.630Z,244.00
2017-12-02T06:57:47.634Z,268.00
2017-12-02T06:58:47.650Z,288.00
2017-12-02T06:59:47.682Z,308.00
2017-12-02T07:00:47.924Z,328.00
2017-12-02T07:01:47.677Z,356.00
2017-12-02T07:02:47.709Z,376.00
2017-12-02T07:03:47.714Z,396.00
2017-12-02T07:04:47.720Z,420.00
2017-12-02T07:05:47.731Z,444.00
2017-12-02T07:06:47.753Z,460.00
2017-12-02T07:07:47.767Z,476.00
2017-12-02T07:08:47.765Z,468.00
2017-12-02T07:09:47.785Z,468.00
2017-12-02T07:10:47.798Z,484.00
2017-12-02T07:11:47.804Z,508.00
2017-12-02T07:12:47.836Z,528.00
2017-12-02T07:13:47.844Z,544.00
2017-12-02T07:14:47.843Z,552.00
2017-12-02T07:15:47.873Z,560.00
2017-12-02T07:16:47.862Z,568.00
2017-12-02T07:17:47.910Z,588.00
2017-12-02T07:18:47.894Z,628.00
2017-12-02T07:19:47.906Z,696.00
2017-12-02T07:20:48.182Z,764.00
2017-12-02T07:21:47.941Z,820.00
2017-12-02T07:22:47.939Z,872.00
2017-12-02T07:23:47.958Z,936.00
2017-12-02T07:24:47.981Z,1000.00
2017-12-02T07:25:47.980Z,1068.00
2017-12-02T07:26:48.049Z,1128.00
2017-12-02T07:27:48.014Z,1184.00
2017-12-02T07:28:48.027Z,1228.00
2017-12-02T07:29:48.030Z,1340.00
2017-12-02T07:30:48.346Z,1496.00
2017-12-02T07:31:48.056Z,1640.00
2017-12-02T07:32:48.070Z,1752.00
2017-12-02T07:33:48.084Z,1848.00
2017-12-02T07:34:48.095Z,1940.00
2017-12-02T07:35:48.115Z,2012.00
2017-12-02T07:36:48.118Z,2052.00
2017-12-02T07:37:48.122Z,2128.00
2017-12-02T07:38:48.154Z,2240.00
2017-12-02T07:39:48.152Z,2332.00
2017-12-02T07:40:48.415Z,2396.00
2017-12-02T07:41:48.186Z,2448.00
2017-12-02T07:42:48.191Z,2480.00
2017-12-02T07:43:48.212Z,2516.00
2017-12-02T07:44:48.210Z,2552.00
2017-12-02T07:45:48.231Z,2596.00
2017-12-02T07:46:48.244Z,2640.00
2017-12-02T07:47:48.251Z,2668.00
2017-12-02T07:48:48.275Z,2704.00
2017-12-02T07:49:48.282Z,2740.00
2017-12-02T07:50:48.295Z,2776.00
2017-12-02T07:51:48.314Z,2816.00
2017-12-02T07:52:48.330Z,2868.00
2017-12-02T07:53:48.327Z,2912.00
2017-12-02T07:54:48.347Z,2964.00
2017-12-02T07:55:48.364Z,3036.00
2017-12-02T07:56:48.377Z,3112.00
2017-12-02T07:57:48.398Z,3156.00
2017-12-02T07:58:48.403Z,3196.00
2017-12-02T07:59:48.410Z,3220.00
2017-12-02T08:00:48.420Z,3204.00
2017-12-02T08:01:48.434Z,3164.00
2017-12-02T08:02:48.455Z,3112.00
2017-12-02T08:03:48.452Z,3092.00
2017-12-02T08:04:48.474Z,3076.00
2017-12-02T08:05:48.498Z,3068.00
2017-12-02T08:06:48.491Z,3032.00
2017-12-02T08:07:48.513Z,3004.00
2017-12-02T08:08:48.534Z,3024.00
2017-12-02T08:09:48.530Z,3064.00
2017-12-02T08:10:48.547Z,3080.00
2017-12-02T08:11:48.562Z,3076.00
2017-12-02T08:12:48.574Z,3080.00
2017-12-02T08:13:48.592Z,3112.00
2017-12-02T08:14:48.596Z,3156.00
2017-12-02T08:15:48.865Z,3208.00
2017-12-02T08:16:48.619Z,3248.00
2017-12-02T08:17:48.628Z,3320.00
2017-12-02T08:18:48.654Z,3388.00
2017-12-02T08:19:48.659Z,3444.00
2017-12-02T08:20:48.928Z,3524.00
2017-12-02T08:21:48.699Z,3616.00
2017-12-02T08:22:48.703Z,3708.00
2017-12-02T08:23:48.718Z,3788.00
2017-12-02T08:24:48.721Z,3860.00
2017-12-02T08:25:48.737Z,3936.00
2017-12-02T08:26:48.749Z,4028.00
2017-12-02T08:27:48.760Z,4140.00
2017-12-02T08:28:48.780Z,4268.00
2017-12-02T08:29:48.789Z,4396.00
2017-12-02T08:30:48.800Z,4508.00
2017-12-02T08:31:48.813Z,4596.00
2017-12-02T08:32:48.823Z,4632.00
2017-12-02T08:33:48.833Z,4648.00
2017-12-02T08:34:48.845Z,4680.00
2017-12-02T08:35:48.862Z,4712.00
2017-12-02T08:36:48.881Z,4724.00
2017-12-02T08:37:48.905Z,4744.00
2017-12-02T08:38:48.904Z,4796.00
2017-12-02T08:39:48.921Z,4864.00
2017-12-02T08:40:48.930Z,4944.00
2017-12-02T08:41:48.936Z,4988.00
2017-12-02T08:42:48.954Z,4968.00
2017-12-02T08:43:48.965Z,4932.00
2017-12-02T08:44:48.978Z,4920.00
2017-12-02T08:45:48.999Z,4904.00
2017-12-02T08:46:49.008Z,4820.00
2017-12-02T08:47:49.012Z,4676.00
2017-12-02T08:48:49.029Z,4536.00
2017-12-02T08:49:49.043Z,4460.00
2017-12-02T08:50:49.051Z,4392.00
2017-12-02T08:51:49.079Z,4296.00
2017-12-02T08:52:49.081Z,4180.00
2017-12-02T08:53:49.090Z,4028.00
2017-12-02T08:54:49.112Z,3876.00
2017-12-02T08:55:49.118Z,3744.00
2017-12-02T08:56:49.123Z,3636.00
2017-12-02T08:57:49.151Z,3580.00
2017-12-02T08:58:49.164Z,3536.00
2017-12-02T08:59:49.164Z,3496.00
2017-12-02T09:00:49.196Z,3440.00
2017-12-02T09:01:49.198Z,3444.00
2017-12-02T09:02:49.203Z,3492.00
2017-12-02T09:03:49.229Z,3532.00
2017-12-02T09:04:49.233Z,3572.00
2017-12-02T09:05:49.248Z,3592.00
2017-12-02T09:06:49.257Z,3620.00
2017-12-02T09:07:49.272Z,3680.00
2017-12-02T09:08:49.285Z,3740.00
2017-12-02T09:09:49.302Z,3744.00
2017-12-02T09:10:49.311Z,3744.00
2017-12-02T09:11:49.324Z,3764.00
2017-12-02T09:12:49.330Z,3800.00
2017-12-02T09:13:49.363Z,3816.00
2017-12-02T09:14:49.366Z,3824.00
2017-12-02T09:15:49.367Z,3844.00
2017-12-02T09:16:49.392Z,3852.00
2017-12-02T09:17:49.409Z,3844.00
2017-12-02T09:18:49.422Z,3876.00
2017-12-02T09:19:49.439Z,3956.00
2017-12-02T09:20:49.437Z,4036.00
2017-12-02T09:21:49.452Z,4116.00
2017-12-02T09:22:49.471Z,4192.00
2017-12-02T09:23:49.477Z,4260.00
2017-12-02T09:24:49.496Z,4344.00
2017-12-02T09:25:49.500Z,4500.00
2017-12-02T09:26:49.522Z,4688.00
2017-12-02T09:27:49.528Z,4916.00
2017-12-02T09:28:49.534Z,5100.00
2017-12-02T09:29:49.562Z,5260.00
2017-12-02T09:30:49.575Z,5372.00
2017-12-02T09:31:49.579Z,5392.00
2017-12-02T09:32:49.599Z,5344.00
2017-12-02T09:33:49.614Z,5344.00
2017-12-02T09:34:49.619Z,5364.00
2017-12-02T09:35:49.682Z,5524.00
2017-12-02T09:36:49.647Z,5652.00
2017-12-02T09:37:49.651Z,5680.00
2017-12-02T09:38:49.682Z,5624.00
2017-12-02T09:39:49.692Z,5500.00
2017-12-02T09:40:49.692Z,5452.00
2017-12-02T09:41:49.712Z,5608.00
2017-12-02T09:42:49.731Z,5492.00
2017-12-02T09:43:49.736Z,5404.00
2017-12-02T09:44:49.762Z,5424.00
2017-12-02T09:45:49.770Z,5408.00
2017-12-02T09:46:49.775Z,5544.00
2017-12-02T09:47:49.794Z,5400.00
2017-12-02T09:48:49.806Z,5248.00
2017-12-02T09:49:49.808Z,5272.00
2017-12-02T09:50:49.840Z,5468.00
2017-12-02T09:51:49.839Z,5588.00
2017-12-02T09:52:49.859Z,5808.00
2017-12-02T09:53:49.879Z,6096.00
2017-12-02T09:54:49.888Z,6160.00
2017-12-02T09:55:49.904Z,6520.00
2017-12-02T09:56:49.914Z,6712.00
2017-12-02T09:57:49.916Z,6668.00
2017-12-02T09:58:49.942Z,6736.00
2017-12-02T09:59:49.953Z,6572.00
2017-12-02T10:00:49.959Z,6504.00
2017-12-02T10:01:49.988Z,6428.00
2017-12-02T10:02:49.992Z,6632.00
2017-12-02T10:03:50.001Z,6772.00
2017-12-02T10:04:50.015Z,6760.00
2017-12-02T10:05:50.032Z,6720.00
2017-12-02T10:06:50.057Z,6920.00
2017-12-02T10:07:50.062Z,6708.00
2017-12-02T10:08:50.076Z,6536.00
2017-12-02T10:09:50.091Z,6388.00
2017-12-02T10:10:50.094Z,6676.00
2017-12-02T10:11:50.114Z,6700.00
2017-12-02T10:12:50.124Z,6884.00
2017-12-02T10:13:50.134Z,6900.00
2017-12-02T10:14:50.165Z,6872.00
2017-12-02T10:15:50.171Z,6972.00
2017-12-02T10:16:50.178Z,6688.00
2017-12-02T10:17:50.216Z,6728.00
2017-12-02T10:18:50.209Z,6568.00
2017-12-02T10:19:50.230Z,6808.00
2017-12-02T10:20:50.233Z,6812.00
2017-12-02T10:21:50.248Z,6764.00
2017-12-02T10:22:50.274Z,7004.00
2017-12-02T10:23:50.279Z,7204.00
2017-12-02T10:24:50.304Z,7672.00
2017-12-02T10:25:50.308Z,7872.00
2017-12-02T10:26:50.318Z,8404.00
2017-12-02T10:27:50.336Z,9092.00
2017-12-02T10:28:50.348Z,9612.00
2017-12-02T10:29:50.363Z,9692.00
2017-12-02T10:30:50.381Z,9044.00
2017-12-02T10:31:50.394Z,7976.00
2017-12-02T10:32:50.413Z,7660.00
2017-12-02T10:33:50.417Z,7668.00
2017-12-02T10:34:50.438Z,8112.00
2017-12-02T10:35:50.453Z,8452.00
2017-12-02T10:36:50.472Z,8440.00
2017-12-02T10:37:50.479Z,8520.00
2017-12-02T10:38:50.497Z,8684.00
2017-12-02T10:39:50.503Z,8688.00
2017-12-02T10:40:50.783Z,8684.00
2017-12-02T10:41:50.537Z,8852.00
2017-12-02T10:42:50.553Z,9176.00
2017-12-02T10:43:50.574Z,9352.00
2017-12-02T10:44:50.578Z,9580.00
2017-12-02T10:45:50.599Z,9508.00
2017-12-02T10:46:50.606Z,9240.00
2017-12-02T10:47:50.623Z,8864.00
2017-12-02T10:48:50.649Z,8600.00
2017-12-02T10:49:50.657Z,8392.00
2017-12-02T10:50:50.663Z,8484.00
2017-12-02T10:51:50.694Z,8456.00
2017-12-02T10:52:50.693Z,8284.00
2017-12-02T10:53:50.721Z,8496.00
2017-12-02T10:54:50.734Z,9208.00
2017-12-02T10:55:50.751Z,9416.00
2017-12-02T10:56:50.767Z,9480.00
2017-12-02T10:57:50.786Z,9844.00
2017-12-02T10:58:50.790Z,9944.00
2017-12-02T10:59:50.809Z,9132.00
2017-12-02T11:00:50.821Z,8212.00
2017-12-02T11:01:50.840Z,8564.00
2017-12-02T11:02:50.856Z,9388.00
2017-12-02T11:03:50.872Z,9560.00
2017-12-02T11:04:50.879Z,9072.00
2017-12-02T11:05:50.901Z,8740.00
2017-12-02T11:06:50.930Z,7904.00
2017-12-02T11:07:50.936Z,6796.00
2017-12-02T11:08:50.947Z,6088.00
2017-12-02T11:09:50.957Z,5676.00
2017-12-02T11:10:50.981Z,5484.00
2017-12-02T11:11:50.987Z,5536.00
2017-12-02T11:12:51.013Z,5548.00
2017-12-02T11:13:51.027Z,5628.00
2017-12-02T11:14:51.038Z,5692.00
2017-12-02T11:15:51.070Z,5652.00
2017-12-02T11:16:51.069Z,5636.00
2017-12-02T11:17:51.099Z,5660.00
2017-12-02T11:18:51.110Z,5596.00
2017-12-02T11:19:51.122Z,5660.00
2017-12-02T11:20:51.433Z,5548.00
2017-12-02T11:21:51.161Z,5604.00
2017-12-02T11:22:51.160Z,5868.00
2017-12-02T11:23:51.191Z,6216.00
2017-12-02T11:24:51.191Z,6560.00
2017-12-02T11:25:51.219Z,6932.00
2017-12-02T11:26:51.223Z,7256.00
2017-12-02T11:27:51.248Z,7476.00
2017-12-02T11:28:51.261Z,7656.00
2017-12-02T11:29:51.283Z,7892.00
2017-12-02T11:30:51.286Z,8092.00
2017-12-02T11:31:51.312Z,8344.00
2017-12-02T11:32:51.317Z,8528.00
2017-12-02T11:33:51.342Z,8536.00
2017-12-02T11:34:51.346Z,8436.00
2017-12-02T11:35:51.362Z,8476.00
2017-12-02T11:36:51.382Z,8456.00
2017-12-02T11:37:51.403Z,8148.00
2017-12-02T11:38:51.407Z,8052.00
2017-12-02T11:39:51.434Z,7952.00
2017-12-02T11:40:51.432Z,8024.00
2017-12-02T11:41:51.453Z,8048.00
2017-12-02T11:42:51.467Z,8064.00
2017-12-02T11:43:51.484Z,8048.00
2017-12-02T11:44:51.504Z,8020.00
2017-12-02T11:45:51.518Z,7968.00
2017-12-02T11:46:51.541Z,7908.00
2017-12-02T11:47:51.550Z,7840.00
2017-12-02T11:48:51.564Z,7676.00
2017-12-02T11:49:51.579Z,7568.00
2017-12-02T11:50:51.584Z,7480.00
2017-12-02T11:51:51.608Z,7524.00
2017-12-02T11:52:51.626Z,7528.00
2017-12-02T11:53:51.641Z,7452.00
2017-12-02T11:54:51.648Z,7284.00
2017-12-02T11:55:51.671Z,7124.00
2017-12-02T11:56:51.685Z,6988.00
2017-12-02T11:57:51.700Z,6892.00
2017-12-02T11:58:51.712Z,6896.00
2017-12-02T11:59:51.731Z,6928.00
2017-12-02T12:00:51.742Z,6888.00
2017-12-02T12:01:51.762Z,6848.00
2017-12-02T12:02:51.771Z,6844.00
2017-12-02T12:03:51.793Z,6932.00
2017-12-02T12:04:51.800Z,7072.00
2017-12-02T12:05:51.827Z,7240.00
2017-12-02T12:06:51.839Z,7284.00
2017-12-02T12:07:51.857Z,7308.00
2017-12-02T12:08:51.870Z,7292.00
2017-12-02T12:09:51.884Z,7252.00
2017-12-02T12:10:51.904Z,6940.00
2017-12-02T12:11:51.908Z,6764.00
2017-12-02T12:12:51.943Z,6764.00
2017-12-02T12:13:51.943Z,6880.00
2017-12-02T12:14:51.959Z,6908.00
2017-12-02T12:15:51.980Z,6860.00
2017-12-02T12:16:51.990Z,6760.00
2017-12-02T12:17:52.002Z,6600.00
2017-12-02T12:18:52.033Z,6404.00
2017-12-02T12:19:52.042Z,6236.00
2017-12-02T12:20:52.055Z,6012.00
2017-12-02T12:21:52.063Z,5768.00
2017-12-02T12:22:52.081Z,5624.00
2017-12-02T12:23:52.100Z,5512.00
2017-12-02T12:24:52.111Z,5452.00
2017-12-02T12:25:52.126Z,5404.00
2017-12-02T12:26:52.146Z,5416.00
2017-12-02T12:27:52.169Z,5528.00
2017-12-02T12:28:52.181Z,5804.00
2017-12-02T12:29:52.191Z,6096.00
2017-12-02T12:30:52.509Z,6316.00
2017-12-02T12:31:52.222Z,6532.00
2017-12-02T12:32:52.238Z,6652.00
2017-12-02T12:33:52.249Z,6672.00
2017-12-02T12:34:52.267Z,6612.00
2017-12-02T12:35:52.273Z,6604.00
2017-12-02T12:36:52.304Z,6524.00
2017-12-02T12:37:52.313Z,6332.00
2017-12-02T12:38:52.323Z,6036.00
2017-12-02T12:39:52.349Z,5708.00
2017-12-02T12:40:52.361Z,5516.00
2017-12-02T12:41:52.375Z,5416.00
2017-12-02T12:42:52.388Z,5328.00
2017-12-02T12:43:52.411Z,5240.00